sensor_id;sensor_type;location;lat;lon;timestamp;P1;durP1;ratioP1;P2;durP2;ratioP2
28166;SDS011;15455;53.376;-6.262;2022-12-07T00:00:52;12.25;;;4.60;;
28166;SDS011;15455;53.376;-6.262;2022-12-07T00:03:38;8.75;;;4.43;;
28166;SDS011;15455;53.376;-6.262;2022-12-07T00:06:25;16.08;;;4.25;;
28166;SDS011;15455;53.376;-6.262;2022-12-07T00:09:11;10.35;;;3.88;;
28166;SDS011;15455;53.376;-6.262;2022-12-07T00:11:59;17.27;;;4.75;;
28166;SDS011;15455;53.376;-6.262;2022-12-07T00:14:44;17.85;;;4.50;;
28166;SDS011;15455;53.376;-6.262;2022-12-07T00:17:30;14.98;;;4.93;;
28166;SDS011;15455;53.376;-6.262;2022-12-07T00:20:15;10.00;;;4.10;;
28166;SDS011;15455;53.376;-6.262;2022-12-07T00:23:00;15.27;;;5.20;;
28166;SDS011;15455;53.376;-6.262;2022-12-07T00:25:45;7.32;;;3.85;;
28166;SDS011;15455;53.376;-6.262;2022-12-07T00:28:33;9.95;;;4.00;;
28166;SDS011;15455;53.376;-6.262;2022-12-07T00:31:20;7.53;;;3.03;;
28166;SDS011;15455;53.376;-6.262;2022-12-07T00:34:07;13.27;;;4.20;;
28166;SDS011;15455;53.376;-6.262;2022-12-07T00:36:58;10.90;;;3.70;;
28166;SDS011;15455;53.376;-6.262;2022-12-07T00:39:45;12.45;;;4.40;;
28166;SDS011;15455;53.376;-6.262;2022-12-07T00:42:30;10.98;;;4.72;;
28166;SDS011;15455;53.376;-6.262;2022-12-07T00:45:16;6.85;;;3.67;;
28166;SDS011;15455;53.376;-6.262;2022-12-07T00:48:01;9.82;;;3.67;;
28166;SDS011;15455;53.376;-6.262;2022-12-07T00:50:47;14.05;;;3.45;;
28166;SDS011;15455;53.376;-6.262;2022-12-07T00:53:34;13.57;;;5.03;;
28166;SDS011;15455;53.376;-6.262;2022-12-07T00:56:26;10.18;;;3.55;;
28166;SDS011;15455;53.376;-6.262;2022-12-07T00:59:13;17.30;;;4.82;;
28166;SDS011;15455;53.376;-6.262;2022-12-07T01:02:01;11.57;;;4.35;;
28166;SDS011;15455;53.376;-6.262;2022-12-07T01:04:47;13.48;;;4.35;;
28166;SDS011;15455;53.376;-6.262;2022-12-07T01:07:32;9.13;;;3.70;;
28166;SDS011;15455;53.376;-6.262;2022-12-07T01:10:18;9.65;;;4.68;;
28166;SDS011;15455;53.376;-6.262;2022-12-07T01:13:04;15.52;;;3.88;;
28166;SDS011;15455;53.376;-6.262;2022-12-07T01:15:49;6.97;;;3.42;;
28166;SDS011;15455;53.376;-6.262;2022-12-07T01:18:35;12.65;;;4.50;;
28166;SDS011;15455;53.376;-6.262;2022-12-07T01:21:22;9.27;;;3.80;;
28166;SDS011;15455;53.376;-6.262;2022-12-07T01:24:10;17.23;;;4.72;;
28166;SDS011;15455;53.376;-6.262;2022-12-07T01:26:56;8.23;;;4.25;;
28166;SDS011;15455;53.376;-6.262;2022-12-07T01:29:41;9.68;;;3.90;;
28166;SDS011;15455;53.376;-6.262;2022-12-07T01:32:27;11.70;;;3.13;;
28166;SDS011;15455;53.376;-6.262;2022-12-07T01:35:13;8.88;;;3.40;;
28166;SDS011;15455;53.376;-6.262;2022-12-07T01:37:59;7.15;;;4.25;;
28166;SDS011;15455;53.376;-6.262;2022-12-07T01:40:44;10.80;;;3.92;;
28166;SDS011;15455;53.376;-6.262;2022-12-07T01:43:30;11.50;;;3.70;;
28166;SDS011;15455;53.376;-6.262;2022-12-07T01:46:17;8.82;;;3.65;;
28166;SDS011;15455;53.376;-6.262;2022-12-07T01:49:03;6.32;;;3.65;;
28166;SDS011;15455;53.376;-6.262;2022-12-07T01:51:57;10.38;;;3.90;;
28166;SDS011;15455;53.376;-6.262;2022-12-07T01:54:49;4.60;;;2.97;;
28166;SDS011;15455;53.376;-6.262;2022-12-07T01:57:43;9.63;;;3.75;;
28166;SDS011;15455;53.376;-6.262;2022-12-07T02:00:33;10.52;;;4.13;;
28166;SDS011;15455;53.376;-6.262;2022-12-07T02:06:12;9.02;;;5.78;;
28166;SDS011;15455;53.376;-6.262;2022-12-07T02:09:02;11.18;;;4.38;;
28166;SDS011;15455;53.376;-6.262;2022-12-07T02:11:48;14.85;;;4.25;;
28166;SDS011;15455;53.376;-6.262;2022-12-07T02:14:33;9.00;;;4.45;;
28166;SDS011;15455;53.376;-6.262;2022-12-07T02:35:50;9.48;;;3.33;;
28166;SDS011;15455;53.376;-6.262;2022-12-07T02:38:55;11.95;;;3.88;;
28166;SDS011;15455;53.376;-6.262;2022-12-07T02:41:49;10.07;;;3.63;;
28166;SDS011;15455;53.376;-6.262;2022-12-07T02:44:38;7.82;;;3.35;;
28166;SDS011;15455;53.376;-6.262;2022-12-07T02:47:25;9.98;;;3.75;;
28166;SDS011;15455;53.376;-6.262;2022-12-07T02:50:13;4.93;;;3.22;;
28166;SDS011;15455;53.376;-6.262;2022-12-07T02:53:00;13.32;;;3.95;;
28166;SDS011;15455;53.376;-6.262;2022-12-07T02:55:45;7.65;;;3.63;;
28166;SDS011;15455;53.376;-6.262;2022-12-07T02:58:54;16.15;;;4.22;;
28166;SDS011;15455;53.376;-6.262;2022-12-07T03:10:57;9.82;;;3.45;;
28166;SDS011;15455;53.376;-6.262;2022-12-07T03:14:00;10.07;;;2.97;;
28166;SDS011;15455;53.376;-6.262;2022-12-07T03:17:10;13.25;;;3.90;;
28166;SDS011;15455;53.376;-6.262;2022-12-07T03:20:07;13.10;;;3.15;;
28166;SDS011;15455;53.376;-6.262;2022-12-07T03:22:57;7.85;;;3.40;;
28166;SDS011;15455;53.376;-6.262;2022-12-07T03:25:45;8.13;;;3.42;;
28166;SDS011;15455;53.376;-6.262;2022-12-07T03:28:39;9.05;;;3.60;;
28166;SDS011;15455;53.376;-6.262;2022-12-07T03:31:34;7.80;;;3.15;;
28166;SDS011;15455;53.376;-6.262;2022-12-07T03:34:32;7.38;;;2.80;;
28166;SDS011;15455;53.376;-6.262;2022-12-07T03:37:23;7.63;;;2.92;;
28166;SDS011;15455;53.376;-6.262;2022-12-07T03:40:22;10.52;;;3.35;;
28166;SDS011;15455;53.376;-6.262;2022-12-07T03:43:18;11.40;;;2.88;;
28166;SDS011;15455;53.376;-6.262;2022-12-07T03:52:05;8.88;;;4.28;;
28166;SDS011;15455;53.376;-6.262;2022-12-07T03:54:58;6.93;;;3.78;;
28166;SDS011;15455;53.376;-6.262;2022-12-07T03:57:51;6.63;;;3.53;;
28166;SDS011;15455;53.376;-6.262;2022-12-07T04:00:41;7.75;;;4.03;;
28166;SDS011;15455;53.376;-6.262;2022-12-07T04:03:27;10.50;;;4.53;;
28166;SDS011;15455;53.376;-6.262;2022-12-07T04:06:13;14.90;;;3.80;;
28166;SDS011;15455;53.376;-6.262;2022-12-07T04:08:59;7.95;;;3.67;;
28166;SDS011;15455;53.376;-6.262;2022-12-07T04:11:44;6.57;;;3.55;;
28166;SDS011;15455;53.376;-6.262;2022-12-07T04:14:29;12.13;;;4.22;;
28166;SDS011;15455;53.376;-6.262;2022-12-07T04:17:15;10.20;;;4.00;;
28166;SDS011;15455;53.376;-6.262;2022-12-07T04:20:02;14.73;;;5.22;;
28166;SDS011;15455;53.376;-6.262;2022-12-07T04:22:49;15.07;;;4.32;;
28166;SDS011;15455;53.376;-6.262;2022-12-07T04:25:34;7.65;;;4.47;;
28166;SDS011;15455;53.376;-6.262;2022-12-07T04:28:20;7.63;;;4.07;;
28166;SDS011;15455;53.376;-6.262;2022-12-07T04:31:05;8.85;;;4.10;;
28166;SDS011;15455;53.376;-6.262;2022-12-07T04:33:50;9.18;;;3.80;;
28166;SDS011;15455;53.376;-6.262;2022-12-07T04:36:36;13.23;;;4.30;;
28166;SDS011;15455;53.376;-6.262;2022-12-07T04:39:24;10.90;;;3.78;;
28166;SDS011;15455;53.376;-6.262;2022-12-07T04:42:10;13.27;;;4.82;;
28166;SDS011;15455;53.376;-6.262;2022-12-07T04:44:57;14.48;;;4.47;;
28166;SDS011;15455;53.376;-6.262;2022-12-07T04:47:42;9.88;;;4.40;;
28166;SDS011;15455;53.376;-6.262;2022-12-07T04:50:28;7.75;;;3.63;;
28166;SDS011;15455;53.376;-6.262;2022-12-07T04:53:13;14.07;;;4.43;;
28166;SDS011;15455;53.376;-6.262;2022-12-07T04:55:59;5.32;;;3.75;;
28166;SDS011;15455;53.376;-6.262;2022-12-07T04:58:46;10.77;;;4.60;;
28166;SDS011;15455;53.376;-6.262;2022-12-07T05:01:32;10.15;;;3.60;;
28166;SDS011;15455;53.376;-6.262;2022-12-07T05:04:18;12.82;;;3.80;;
28166;SDS011;15455;53.376;-6.262;2022-12-07T05:07:04;9.45;;;3.45;;
28166;SDS011;15455;53.376;-6.262;2022-12-07T05:09:49;15.80;;;4.07;;
28166;SDS011;15455;53.376;-6.262;2022-12-07T05:12:35;11.27;;;3.63;;
28166;SDS011;15455;53.376;-6.262;2022-12-07T05:15:20;8.82;;;3.30;;
28166;SDS011;15455;53.376;-6.262;2022-12-07T05:18:05;7.70;;;3.35;;
28166;SDS011;15455;53.376;-6.262;2022-12-07T05:20:51;11.23;;;3.85;;
28166;SDS011;15455;53.376;-6.262;2022-12-07T05:23:37;10.40;;;3.65;;
28166;SDS011;15455;53.376;-6.262;2022-12-07T05:26:22;4.28;;;2.50;;
28166;SDS011;15455;53.376;-6.262;2022-12-07T05:29:10;8.68;;;3.50;;
28166;SDS011;15455;53.376;-6.262;2022-12-07T05:31:57;7.53;;;3.72;;
28166;SDS011;15455;53.376;-6.262;2022-12-07T05:34:43;10.13;;;4.05;;
28166;SDS011;15455;53.376;-6.262;2022-12-07T05:37:29;10.60;;;3.53;;
28166;SDS011;15455;53.376;-6.262;2022-12-07T05:40:14;4.80;;;3.05;;
28166;SDS011;15455;53.376;-6.262;2022-12-07T05:43:00;10.25;;;3.58;;
28166;SDS011;15455;53.376;-6.262;2022-12-07T05:45:49;11.93;;;4.03;;
28166;SDS011;15455;53.376;-6.262;2022-12-07T05:48:34;10.38;;;3.35;;
28166;SDS011;15455;53.376;-6.262;2022-12-07T05:51:21;7.60;;;3.65;;
28166;SDS011;15455;53.376;-6.262;2022-12-07T05:54:07;9.65;;;3.80;;
28166;SDS011;15455;53.376;-6.262;2022-12-07T05:56:52;12.88;;;4.05;;
28166;SDS011;15455;53.376;-6.262;2022-12-07T05:59:38;8.38;;;3.97;;
28166;SDS011;15455;53.376;-6.262;2022-12-07T06:02:23;10.35;;;3.85;;
28166;SDS011;15455;53.376;-6.262;2022-12-07T06:05:09;15.38;;;4.80;;
28166;SDS011;15455;53.376;-6.262;2022-12-07T06:07:54;12.18;;;4.13;;
28166;SDS011;15455;53.376;-6.262;2022-12-07T06:10:46;13.05;;;5.05;;
28166;SDS011;15455;53.376;-6.262;2022-12-07T06:13:53;12.13;;;5.65;;
28166;SDS011;15455;53.376;-6.262;2022-12-07T06:16:38;10.23;;;3.78;;
28166;SDS011;15455;53.376;-6.262;2022-12-07T06:19:23;9.68;;;4.45;;
28166;SDS011;15455;53.376;-6.262;2022-12-07T06:22:09;12.45;;;5.25;;
28166;SDS011;15455;53.376;-6.262;2022-12-07T06:24:56;10.52;;;5.10;;
28166;SDS011;15455;53.376;-6.262;2022-12-07T06:27:41;13.80;;;5.35;;
28166;SDS011;15455;53.376;-6.262;2022-12-07T06:30:27;13.93;;;4.68;;
28166;SDS011;15455;53.376;-6.262;2022-12-07T06:33:12;12.70;;;4.15;;
28166;SDS011;15455;53.376;-6.262;2022-12-07T06:35:58;11.68;;;4.95;;
28166;SDS011;15455;53.376;-6.262;2022-12-07T06:38:43;12.65;;;4.47;;
28166;SDS011;15455;53.376;-6.262;2022-12-07T06:41:29;10.82;;;4.57;;
28166;SDS011;15455;53.376;-6.262;2022-12-07T06:44:15;14.57;;;3.72;;
28166;SDS011;15455;53.376;-6.262;2022-12-07T06:47:00;12.98;;;4.57;;
28166;SDS011;15455;53.376;-6.262;2022-12-07T06:50:06;12.95;;;4.78;;
28166;SDS011;15455;53.376;-6.262;2022-12-07T06:52:53;10.98;;;4.68;;
28166;SDS011;15455;53.376;-6.262;2022-12-07T06:55:38;9.10;;;4.18;;
28166;SDS011;15455;53.376;-6.262;2022-12-07T06:58:24;10.15;;;4.22;;
28166;SDS011;15455;53.376;-6.262;2022-12-07T07:01:13;14.77;;;5.32;;
28166;SDS011;15455;53.376;-6.262;2022-12-07T07:04:00;8.13;;;4.78;;
28166;SDS011;15455;53.376;-6.262;2022-12-07T07:06:46;8.38;;;4.53;;
28166;SDS011;15455;53.376;-6.262;2022-12-07T07:09:31;12.65;;;5.43;;
28166;SDS011;15455;53.376;-6.262;2022-12-07T07:12:17;12.60;;;4.50;;
28166;SDS011;15455;53.376;-6.262;2022-12-07T07:15:02;18.65;;;5.30;;
28166;SDS011;15455;53.376;-6.262;2022-12-07T07:17:48;9.52;;;4.60;;
28166;SDS011;15455;53.376;-6.262;2022-12-07T07:20:34;10.00;;;4.30;;
28166;SDS011;15455;53.376;-6.262;2022-12-07T07:23:20;16.90;;;5.32;;
28166;SDS011;15455;53.376;-6.262;2022-12-07T07:26:06;11.90;;;4.63;;
28166;SDS011;15455;53.376;-6.262;2022-12-07T07:28:52;10.18;;;5.55;;
28166;SDS011;15455;53.376;-6.262;2022-12-07T07:31:37;15.68;;;5.60;;
28166;SDS011;15455;53.376;-6.262;2022-12-07T07:34:22;11.55;;;5.47;;
28166;SDS011;15455;53.376;-6.262;2022-12-07T07:37:08;12.57;;;4.68;;
28166;SDS011;15455;53.376;-6.262;2022-12-07T07:39:58;17.55;;;4.90;;
28166;SDS011;15455;53.376;-6.262;2022-12-07T07:42:51;8.65;;;4.75;;
28166;SDS011;15455;53.376;-6.262;2022-12-07T07:45:37;10.63;;;4.93;;
28166;SDS011;15455;53.376;-6.262;2022-12-07T07:48:23;14.82;;;5.57;;
28166;SDS011;15455;53.376;-6.262;2022-12-07T07:51:10;9.57;;;4.28;;
28166;SDS011;15455;53.376;-6.262;2022-12-07T07:53:55;12.18;;;3.90;;
28166;SDS011;15455;53.376;-6.262;2022-12-07T07:56:42;13.77;;;4.93;;
28166;SDS011;15455;53.376;-6.262;2022-12-07T07:59:27;9.63;;;4.50;;
28166;SDS011;15455;53.376;-6.262;2022-12-07T08:02:14;12.80;;;3.80;;
28166;SDS011;15455;53.376;-6.262;2022-12-07T08:05:02;12.00;;;3.63;;
28166;SDS011;15455;53.376;-6.262;2022-12-07T08:07:48;8.63;;;3.85;;
28166;SDS011;15455;53.376;-6.262;2022-12-07T08:10:33;5.50;;;3.53;;
28166;SDS011;15455;53.376;-6.262;2022-12-07T08:13:20;12.55;;;4.22;;
28166;SDS011;15455;53.376;-6.262;2022-12-07T08:16:13;7.47;;;4.03;;
28166;SDS011;15455;53.376;-6.262;2022-12-07T08:19:00;9.18;;;3.92;;
28166;SDS011;15455;53.376;-6.262;2022-12-07T08:21:45;9.50;;;4.05;;
28166;SDS011;15455;53.376;-6.262;2022-12-07T08:24:34;11.38;;;3.42;;
28166;SDS011;15455;53.376;-6.262;2022-12-07T08:27:20;6.10;;;3.47;;
28166;SDS011;15455;53.376;-6.262;2022-12-07T08:30:08;7.45;;;3.42;;
28166;SDS011;15455;53.376;-6.262;2022-12-07T08:32:55;5.95;;;3.10;;
28166;SDS011;15455;53.376;-6.262;2022-12-07T08:35:41;10.07;;;3.58;;
28166;SDS011;15455;53.376;-6.262;2022-12-07T08:38:26;5.47;;;2.40;;
28166;SDS011;15455;53.376;-6.262;2022-12-07T08:41:16;7.88;;;2.30;;
28166;SDS011;15455;53.376;-6.262;2022-12-07T08:44:02;7.53;;;2.78;;
28166;SDS011;15455;53.376;-6.262;2022-12-07T08:46:50;7.28;;;3.13;;
28166;SDS011;15455;53.376;-6.262;2022-12-07T08:49:47;10.00;;;3.25;;
28166;SDS011;15455;53.376;-6.262;2022-12-07T08:52:34;6.55;;;3.20;;
28166;SDS011;15455;53.376;-6.262;2022-12-07T08:55:22;7.15;;;3.20;;
28166;SDS011;15455;53.376;-6.262;2022-12-07T08:58:08;10.20;;;2.67;;
28166;SDS011;15455;53.376;-6.262;2022-12-07T09:00:53;5.47;;;2.47;;
28166;SDS011;15455;53.376;-6.262;2022-12-07T09:03:39;10.38;;;2.97;;
28166;SDS011;15455;53.376;-6.262;2022-12-07T09:06:25;7.10;;;2.83;;
28166;SDS011;15455;53.376;-6.262;2022-12-07T09:09:11;4.32;;;2.33;;
28166;SDS011;15455;53.376;-6.262;2022-12-07T09:11:57;9.95;;;2.35;;
28166;SDS011;15455;53.376;-6.262;2022-12-07T09:14:42;4.13;;;2.28;;
28166;SDS011;15455;53.376;-6.262;2022-12-07T09:17:31;4.60;;;2.25;;
28166;SDS011;15455;53.376;-6.262;2022-12-07T09:20:18;6.38;;;2.45;;
28166;SDS011;15455;53.376;-6.262;2022-12-07T09:23:11;5.95;;;1.98;;
28166;SDS011;15455;53.376;-6.262;2022-12-07T09:26:00;6.50;;;2.70;;
28166;SDS011;15455;53.376;-6.262;2022-12-07T09:28:54;9.02;;;2.92;;
28166;SDS011;15455;53.376;-6.262;2022-12-07T09:31:39;6.53;;;2.53;;
28166;SDS011;15455;53.376;-6.262;2022-12-07T09:34:26;9.48;;;3.25;;
28166;SDS011;15455;53.376;-6.262;2022-12-07T09:37:11;6.68;;;3.10;;
28166;SDS011;15455;53.376;-6.262;2022-12-07T09:39:57;9.45;;;2.92;;
28166;SDS011;15455;53.376;-6.262;2022-12-07T09:42:43;9.45;;;2.88;;
28166;SDS011;15455;53.376;-6.262;2022-12-07T09:45:34;9.30;;;2.38;;
28166;SDS011;15455;53.376;-6.262;2022-12-07T09:48:32;5.50;;;2.53;;
28166;SDS011;15455;53.376;-6.262;2022-12-07T09:51:23;10.15;;;2.95;;
28166;SDS011;15455;53.376;-6.262;2022-12-07T09:54:14;5.85;;;2.70;;
28166;SDS011;15455;53.376;-6.262;2022-12-07T09:57:01;7.38;;;2.80;;
28166;SDS011;15455;53.376;-6.262;2022-12-07T09:59:47;19.63;;;4.03;;
28166;SDS011;15455;53.376;-6.262;2022-12-07T10:02:34;14.60;;;3.97;;
28166;SDS011;15455;53.376;-6.262;2022-12-07T10:05:26;8.40;;;4.07;;
28166;SDS011;15455;53.376;-6.262;2022-12-07T10:08:15;17.17;;;3.78;;
28166;SDS011;15455;53.376;-6.262;2022-12-07T10:11:02;11.68;;;4.75;;
28166;SDS011;15455;53.376;-6.262;2022-12-07T10:13:55;18.70;;;4.43;;
28166;SDS011;15455;53.376;-6.262;2022-12-07T10:16:57;7.90;;;3.97;;
28166;SDS011;15455;53.376;-6.262;2022-12-07T10:19:43;13.98;;;6.35;;
28166;SDS011;15455;53.376;-6.262;2022-12-07T10:22:28;12.50;;;6.07;;
28166;SDS011;15455;53.376;-6.262;2022-12-07T10:25:20;26.00;;;8.15;;
28166;SDS011;15455;53.376;-6.262;2022-12-07T10:34:08;5.32;;;4.03;;
28166;SDS011;15455;53.376;-6.262;2022-12-07T10:37:33;14.65;;;4.75;;
28166;SDS011;15455;53.376;-6.262;2022-12-07T10:40:33;13.02;;;5.28;;
28166;SDS011;15455;53.376;-6.262;2022-12-07T10:43:19;6.95;;;4.03;;
28166;SDS011;15455;53.376;-6.262;2022-12-07T10:55:26;9.27;;;4.15;;
28166;SDS011;15455;53.376;-6.262;2022-12-07T10:58:35;8.05;;;3.75;;
28166;SDS011;15455;53.376;-6.262;2022-12-07T11:01:52;6.72;;;3.60;;
28166;SDS011;15455;53.376;-6.262;2022-12-07T11:04:57;10.55;;;3.85;;
28166;SDS011;15455;53.376;-6.262;2022-12-07T11:11:01;6.10;;;3.28;;
28166;SDS011;15455;53.376;-6.262;2022-12-07T11:14:03;10.95;;;3.22;;
28166;SDS011;15455;53.376;-6.262;2022-12-07T11:38:54;7.45;;;2.17;;
28166;SDS011;15455;53.376;-6.262;2022-12-07T11:41:44;13.70;;;4.65;;
28166;SDS011;15455;53.376;-6.262;2022-12-07T11:44:39;9.20;;;4.05;;
28166;SDS011;15455;53.376;-6.262;2022-12-07T11:47:59;7.60;;;3.53;;
28166;SDS011;15455;53.376;-6.262;2022-12-07T11:51:00;6.45;;;3.08;;
28166;SDS011;15455;53.376;-6.262;2022-12-07T11:53:57;8.15;;;3.22;;
28166;SDS011;15455;53.376;-6.262;2022-12-07T11:56:47;9.52;;;3.25;;
28166;SDS011;15455;53.376;-6.262;2022-12-07T11:59:38;6.20;;;3.08;;
28166;SDS011;15455;53.376;-6.262;2022-12-07T12:02:31;5.87;;;2.50;;
28166;SDS011;15455;53.376;-6.262;2022-12-07T12:05:22;6.30;;;2.75;;
28166;SDS011;15455;53.376;-6.262;2022-12-07T12:18:12;11.68;;;3.30;;
28166;SDS011;15455;53.376;-6.262;2022-12-07T12:21:05;3.17;;;1.88;;
28166;SDS011;15455;53.376;-6.262;2022-12-07T12:24:01;1.83;;;0.75;;
28166;SDS011;15455;53.376;-6.262;2022-12-07T12:26:52;6.95;;;1.15;;
28166;SDS011;15455;53.376;-6.262;2022-12-07T12:29:54;2.95;;;1.25;;
28166;SDS011;15455;53.376;-6.262;2022-12-07T12:32:43;9.68;;;1.63;;
28166;SDS011;15455;53.376;-6.262;2022-12-07T12:35:31;3.88;;;1.38;;
28166;SDS011;15455;53.376;-6.262;2022-12-07T12:38:21;4.97;;;1.35;;
28166;SDS011;15455;53.376;-6.262;2022-12-07T12:41:50;6.47;;;1.38;;
28166;SDS011;15455;53.376;-6.262;2022-12-07T12:50:35;5.32;;;1.00;;
28166;SDS011;15455;53.376;-6.262;2022-12-07T13:11:16;1.85;;;0.90;;
28166;SDS011;15455;53.376;-6.262;2022-12-07T13:29:19;3.35;;;1.80;;
28166;SDS011;15455;53.376;-6.262;2022-12-07T13:32:17;6.38;;;1.65;;
28166;SDS011;15455;53.376;-6.262;2022-12-07T13:35:28;4.85;;;2.13;;
28166;SDS011;15455;53.376;-6.262;2022-12-07T13:38:25;5.90;;;2.03;;
28166;SDS011;15455;53.376;-6.262;2022-12-07T13:41:17;8.73;;;2.05;;
28166;SDS011;15455;53.376;-6.262;2022-12-07T13:44:09;5.45;;;1.55;;
28166;SDS011;15455;53.376;-6.262;2022-12-07T13:49:55;6.38;;;1.38;;
28166;SDS011;15455;53.376;-6.262;2022-12-07T13:52:44;7.40;;;1.13;;
28166;SDS011;15455;53.376;-6.262;2022-12-07T13:55:30;6.30;;;1.77;;
28166;SDS011;15455;53.376;-6.262;2022-12-07T13:58:16;3.75;;;1.75;;
28166;SDS011;15455;53.376;-6.262;2022-12-07T14:01:02;9.55;;;3.78;;
28166;SDS011;15455;53.376;-6.262;2022-12-07T14:03:47;7.97;;;1.60;;
28166;SDS011;15455;53.376;-6.262;2022-12-07T14:06:33;4.88;;;1.50;;
28166;SDS011;15455;53.376;-6.262;2022-12-07T14:09:22;8.65;;;1.38;;
28166;SDS011;15455;53.376;-6.262;2022-12-07T14:12:11;6.00;;;1.87;;
28166;SDS011;15455;53.376;-6.262;2022-12-07T14:14:58;7.80;;;2.97;;
28166;SDS011;15455;53.376;-6.262;2022-12-07T14:17:51;6.88;;;2.03;;
28166;SDS011;15455;53.376;-6.262;2022-12-07T14:20:38;3.38;;;2.00;;
28166;SDS011;15455;53.376;-6.262;2022-12-07T14:23:26;3.83;;;1.40;;
28166;SDS011;15455;53.376;-6.262;2022-12-07T14:26:13;4.35;;;1.75;;
28166;SDS011;15455;53.376;-6.262;2022-12-07T14:32:34;2.55;;;1.50;;
28166;SDS011;15455;53.376;-6.262;2022-12-07T14:35:22;9.57;;;1.20;;
28166;SDS011;15455;53.376;-6.262;2022-12-07T14:38:07;3.53;;;1.17;;
28166;SDS011;15455;53.376;-6.262;2022-12-07T14:40:53;2.20;;;1.25;;
28166;SDS011;15455;53.376;-6.262;2022-12-07T14:43:59;8.05;;;1.73;;
28166;SDS011;15455;53.376;-6.262;2022-12-07T14:47:07;3.72;;;1.55;;
28166;SDS011;15455;53.376;-6.262;2022-12-07T14:50:16;2.55;;;1.10;;
28166;SDS011;15455;53.376;-6.262;2022-12-07T14:53:05;1.48;;;0.60;;
28166;SDS011;15455;53.376;-6.262;2022-12-07T14:56:14;1.60;;;1.35;;
28166;SDS011;15455;53.376;-6.262;2022-12-07T14:58:59;2.72;;;1.27;;
28166;SDS011;15455;53.376;-6.262;2022-12-07T15:01:45;2.95;;;1.30;;
28166;SDS011;15455;53.376;-6.262;2022-12-07T15:04:30;4.20;;;1.60;;
28166;SDS011;15455;53.376;-6.262;2022-12-07T15:07:18;8.70;;;2.83;;
28166;SDS011;15455;53.376;-6.262;2022-12-07T15:10:06;8.02;;;2.78;;
28166;SDS011;15455;53.376;-6.262;2022-12-07T15:13:03;2.13;;;1.30;;
28166;SDS011;15455;53.376;-6.262;2022-12-07T15:16:08;4.00;;;1.50;;
28166;SDS011;15455;53.376;-6.262;2022-12-07T15:18:57;3.40;;;1.80;;
28166;SDS011;15455;53.376;-6.262;2022-12-07T15:22:02;7.32;;;2.55;;
28166;SDS011;15455;53.376;-6.262;2022-12-07T15:24:48;6.32;;;2.13;;
28166;SDS011;15455;53.376;-6.262;2022-12-07T15:27:34;4.28;;;1.67;;
28166;SDS011;15455;53.376;-6.262;2022-12-07T15:30:19;8.98;;;3.22;;
28166;SDS011;15455;53.376;-6.262;2022-12-07T15:33:04;6.60;;;4.10;;
28166;SDS011;15455;53.376;-6.262;2022-12-07T15:35:50;10.05;;;3.00;;
28166;SDS011;15455;53.376;-6.262;2022-12-07T15:38:35;4.15;;;2.08;;
28166;SDS011;15455;53.376;-6.262;2022-12-07T15:41:41;6.75;;;1.40;;
28166;SDS011;15455;53.376;-6.262;2022-12-07T15:44:27;7.00;;;1.90;;
28166;SDS011;15455;53.376;-6.262;2022-12-07T15:47:48;9.32;;;2.30;;
28166;SDS011;15455;53.376;-6.262;2022-12-07T15:50:53;7.97;;;1.88;;
28166;SDS011;15455;53.376;-6.262;2022-12-07T15:53:46;3.30;;;1.60;;
28166;SDS011;15455;53.376;-6.262;2022-12-07T15:56:31;7.28;;;2.42;;
28166;SDS011;15455;53.376;-6.262;2022-12-07T15:59:17;18.67;;;8.13;;
28166;SDS011;15455;53.376;-6.262;2022-12-07T16:02:03;6.28;;;1.95;;
28166;SDS011;15455;53.376;-6.262;2022-12-07T16:04:49;10.15;;;3.15;;
28166;SDS011;15455;53.376;-6.262;2022-12-07T16:07:35;8.95;;;4.18;;
28166;SDS011;15455;53.376;-6.262;2022-12-07T16:10:21;5.95;;;3.70;;
28166;SDS011;15455;53.376;-6.262;2022-12-07T16:13:06;14.43;;;5.18;;
28166;SDS011;15455;53.376;-6.262;2022-12-07T16:15:51;13.95;;;4.20;;
28166;SDS011;15455;53.376;-6.262;2022-12-07T16:18:37;11.38;;;4.28;;
28166;SDS011;15455;53.376;-6.262;2022-12-07T16:21:22;16.30;;;6.05;;
28166;SDS011;15455;53.376;-6.262;2022-12-07T16:24:09;14.32;;;5.13;;
28166;SDS011;15455;53.376;-6.262;2022-12-07T16:26:55;8.70;;;3.97;;
28166;SDS011;15455;53.376;-6.262;2022-12-07T16:29:41;11.45;;;3.72;;
28166;SDS011;15455;53.376;-6.262;2022-12-07T16:32:26;12.23;;;4.05;;
28166;SDS011;15455;53.376;-6.262;2022-12-07T16:35:12;11.50;;;3.95;;
28166;SDS011;15455;53.376;-6.262;2022-12-07T16:37:58;12.50;;;6.15;;
28166;SDS011;15455;53.376;-6.262;2022-12-07T16:40:43;12.32;;;6.55;;
28166;SDS011;15455;53.376;-6.262;2022-12-07T16:43:29;15.20;;;6.28;;
28166;SDS011;15455;53.376;-6.262;2022-12-07T16:46:14;14.60;;;5.25;;
28166;SDS011;15455;53.376;-6.262;2022-12-07T16:49:01;12.10;;;4.13;;
28166;SDS011;15455;53.376;-6.262;2022-12-07T16:51:49;6.63;;;2.97;;
28166;SDS011;15455;53.376;-6.262;2022-12-07T16:54:52;25.23;;;8.75;;
28166;SDS011;15455;53.376;-6.262;2022-12-07T16:57:38;13.57;;;3.78;;
28166;SDS011;15455;53.376;-6.262;2022-12-07T17:00:23;11.10;;;4.13;;
28166;SDS011;15455;53.376;-6.262;2022-12-07T17:03:09;11.45;;;5.60;;
28166;SDS011;15455;53.376;-6.262;2022-12-07T17:06:01;9.57;;;4.13;;
28166;SDS011;15455;53.376;-6.262;2022-12-07T17:08:47;20.30;;;6.68;;
28166;SDS011;15455;53.376;-6.262;2022-12-07T17:11:33;18.23;;;10.68;;
28166;SDS011;15455;53.376;-6.262;2022-12-07T17:14:19;12.38;;;6.50;;
28166;SDS011;15455;53.376;-6.262;2022-12-07T17:17:24;18.92;;;8.60;;
28166;SDS011;15455;53.376;-6.262;2022-12-07T17:20:10;10.25;;;4.50;;
28166;SDS011;15455;53.376;-6.262;2022-12-07T17:22:56;12.15;;;6.43;;
28166;SDS011;15455;53.376;-6.262;2022-12-07T17:25:41;7.63;;;4.00;;
28166;SDS011;15455;53.376;-6.262;2022-12-07T17:28:26;8.55;;;4.75;;
28166;SDS011;15455;53.376;-6.262;2022-12-07T17:31:13;12.80;;;6.28;;
28166;SDS011;15455;53.376;-6.262;2022-12-07T17:34:00;15.18;;;8.05;;
28166;SDS011;15455;53.376;-6.262;2022-12-07T17:36:46;17.83;;;9.43;;
28166;SDS011;15455;53.376;-6.262;2022-12-07T17:39:31;19.33;;;9.70;;
28166;SDS011;15455;53.376;-6.262;2022-12-07T17:42:17;26.50;;;10.40;;
28166;SDS011;15455;53.376;-6.262;2022-12-07T17:45:21;19.95;;;11.20;;
28166;SDS011;15455;53.376;-6.262;2022-12-07T17:48:07;22.08;;;10.18;;
28166;SDS011;15455;53.376;-6.262;2022-12-07T17:50:52;30.45;;;12.10;;
28166;SDS011;15455;53.376;-6.262;2022-12-07T17:53:56;18.42;;;10.05;;
28166;SDS011;15455;53.376;-6.262;2022-12-07T17:56:44;31.77;;;11.00;;
28166;SDS011;15455;53.376;-6.262;2022-12-07T17:59:30;20.85;;;9.95;;
28166;SDS011;15455;53.376;-6.262;2022-12-07T18:02:17;21.75;;;9.35;;
28166;SDS011;15455;53.376;-6.262;2022-12-07T18:05:02;23.55;;;10.07;;
28166;SDS011;15455;53.376;-6.262;2022-12-07T18:07:49;19.67;;;9.35;;
28166;SDS011;15455;53.376;-6.262;2022-12-07T18:10:34;25.95;;;9.95;;
28166;SDS011;15455;53.376;-6.262;2022-12-07T18:13:20;19.23;;;8.98;;
28166;SDS011;15455;53.376;-6.262;2022-12-07T18:16:22;22.85;;;8.70;;
28166;SDS011;15455;53.376;-6.262;2022-12-07T18:19:09;21.48;;;9.15;;
28166;SDS011;15455;53.376;-6.262;2022-12-07T18:21:57;15.82;;;8.77;;
28166;SDS011;15455;53.376;-6.262;2022-12-07T18:24:43;26.88;;;11.40;;
28166;SDS011;15455;53.376;-6.262;2022-12-07T18:27:29;27.15;;;11.90;;
28166;SDS011;15455;53.376;-6.262;2022-12-07T18:30:14;26.25;;;12.25;;
28166;SDS011;15455;53.376;-6.262;2022-12-07T18:33:00;18.67;;;10.48;;
28166;SDS011;15455;53.376;-6.262;2022-12-07T18:35:46;26.83;;;12.13;;
28166;SDS011;15455;53.376;-6.262;2022-12-07T18:38:32;23.80;;;12.23;;
28166;SDS011;15455;53.376;-6.262;2022-12-07T18:41:18;20.80;;;11.10;;
28166;SDS011;15455;53.376;-6.262;2022-12-07T18:44:04;22.48;;;10.60;;
28166;SDS011;15455;53.376;-6.262;2022-12-07T18:46:50;19.92;;;10.73;;
28166;SDS011;15455;53.376;-6.262;2022-12-07T18:49:36;21.77;;;10.48;;